ROMMA est une association bénévole à but non lucratif. Votre soutien est indispensable : ADHERER à ROMMA ou FAIRE un DON

Briord - (01, Ain)

Bugey (281 m)   Longitude: 05° 29' 13" E   Latitude: 45° 46' 37" N Station partenaire n°15
 

Détail journalier du     <<     >>

Température Precipitation Humidité Pression Vent Dir Rafale Dir. rafale Ensol.
Heure (°C) (mm) (%) (hPa) (km/h) (km/h) (min)
01:00 15.6092101100---0
02:00 13.7091101100---0
03:00 12.9092101108NE0
04:00 12.909210101SE8NE0
05:00 12.2093101003ESE0
06:00 11.8094101102N0
07:00 11.7095101100---0
08:00 12.7095101103N0
09:00 16.2088101102N40
10:00 18.808410112SE6SE60
11:00 20.407510112ONO10ONO60
12:00 22.107110112ONO11ONO55
13:00 23.106810103O15OSO25
14:00 24.106510104ONO15ONO20
15:00 24.806410102SSE13ONO10
16:00 26.306110101ONO13N10
17:00 26.105710102O11N15
18:00 26.505810102O13O40
19:00 27.405510103ONO11O45
20:00 27.605510102OSO11O60
21:00 23.907110101NO6NO50
22:00 19.8082101103NO0
23:00 18.1086101103ESE0
minuit 17.4087101205ENE0

Graphique du 29-07-2019

 

Serveur OMMA